Map

Track Data

SID SEASON NUMBER BASIN SUBBASIN NAME ISO_TIME NATURE LAT LON WMO_WIND WMO_PRES WMO_AGENCY TRACK_TYPE DIST2LAND LANDFALL IFLAG USA_AGENCY USA_ATCF_ID USA_LAT USA_LON USA_RECORD USA_STATUS USA_WIND USA_PRES USA_SSHS USA_R34_NE USA_R34_SE USA_R34_SW USA_R34_NW USA_R50_NE USA_R50_SE USA_R50_SW USA_R50_NW USA_R64_NE USA_R64_SE USA_R64_SW USA_R64_NW USA_POCI USA_ROCI USA_RMW USA_EYE TOKYO_LAT TOKYO_LON TOKYO_GRADE TOKYO_WIND TOKYO_PRES TOKYO_R50_DIR TOKYO_R50_LONG TOKYO_R50_SHORT TOKYO_R30_DIR TOKYO_R30_LONG TOKYO_R30_SHORT TOKYO_LAND CMA_LAT CMA_LON CMA_CAT CMA_WIND CMA_PRES HKO_LAT HKO_LON HKO_CAT HKO_WIND HKO_PRES NEWDELHI_LAT NEWDELHI_LON NEWDELHI_GRADE NEWDELHI_WIND NEWDELHI_PRES NEWDELHI_CI NEWDELHI_DP NEWDELHI_POCI REUNION_LAT REUNION_LON REUNION_TYPE REUNION_WIND REUNION_PRES REUNION_TNUM REUNION_CI REUNION_RMW REUNION_R34_NE REUNION_R34_SE REUNION_R34_SW REUNION_R34_NW REUNION_R50_NE REUNION_R50_SE REUNION_R50_SW REUNION_R50_NW REUNION_R64_NE REUNION_R64_SE REUNION_R64_SW REUNION_R64_NW BOM_LAT BOM_LON BOM_TYPE BOM_WIND BOM_PRES BOM_TNUM BOM_CI BOM_RMW BOM_R34_NE BOM_R34_SE BOM_R34_SW BOM_R34_NW BOM_R50_NE BOM_R50_SE BOM_R50_SW BOM_R50_NW BOM_R64_NE BOM_R64_SE BOM_R64_SW BOM_R64_NW BOM_ROCI BOM_POCI BOM_EYE BOM_POS_METHOD BOM_PRES_METHOD NADI_LAT NADI_LON NADI_CAT NADI_WIND NADI_PRES WELLINGTON_LAT WELLINGTON_LON WELLINGTON_WIND WELLINGTON_PRES DS824_LAT DS824_LON DS824_STAGE DS824_WIND DS824_PRES TD9636_LAT TD9636_LON TD9636_STAGE TD9636_WIND TD9636_PRES TD9635_LAT TD9635_LON TD9635_WIND TD9635_PRES TD9635_ROCI NEUMANN_LAT NEUMANN_LON NEUMANN_CLASS NEUMANN_WIND NEUMANN_PRES MLC_LAT MLC_LON MLC_CLASS MLC_WIND MLC_PRES USA_GUST BOM_GUST BOM_GUST_PER REUNION_GUST REUNION_GUST_PER USA_SEAHGT USA_SEARAD_NE USA_SEARAD_SE USA_SEARAD_SW USA_SEARAD_NW STORM_SPEED STORM_DIR
1933197N18129 1933 26 WP MM NOT_NAMED 1933-07-15 21:00:00 NR 17.9000 128.900 main 657 619 __________O___ -1 17.9000 128.900 4 7 214
1933197N18129 1933 26 WP MM NOT_NAMED 1933-07-16 00:00:00 NR 17.5956 128.682 main 619 588 __________P___ -1 17.5956 128.682 4 7 216
1933197N18129 1933 26 WP MM NOT_NAMED 1933-07-16 03:00:00 NR 17.3428 128.482 main 581 557 __________P___ -1 17.3428 128.482 4 5 221
1933197N18129 1933 26 WP MM NOT_NAMED 1933-07-16 06:00:00 NR 17.1936 128.316 main 557 549 __________P___ -1 17.1936 128.316 4 3 242
1933197N18129 1933 26 WP MM NOT_NAMED 1933-07-16 09:00:00 NR 17.2000 128.200 main 549 549 __________O___ -1 17.2000 128.200 4 3 321
1933197N18129 1933 26 WP MM NOT_NAMED 1933-07-16 12:00:00 NR 17.3918 128.144 main 557 557 __________P___ -1 17.3918 128.144 4 5 352
1933197N18129 1933 26 WP MM NOT_NAMED 1933-07-16 15:00:00 NR 17.7099 128.128 main 580 580 __________P___ -1 17.7099 128.128 4 7 358
1933197N18129 1933 26 WP MM NOT_NAMED 1933-07-16 18:00:00 NR 18.0731 128.122 main 606 606 __________P___ -1 18.0731 128.122 4 7 0
1933197N18129 1933 26 WP MM NOT_NAMED 1933-07-16 21:00:00 NR 18.4000 128.100 main 612 601 __________O___ -1 18.4000 128.100 4 5 343
1933197N18129 1933 26 WP MM NOT_NAMED 1933-07-17 00:00:00 NR 18.5469 127.965 main 601 580 __________P___ -1 18.5469 127.965 4 4 313
1933197N18129 1933 26 WP MM NOT_NAMED 1933-07-17 03:00:00 NR 18.6500 127.818 main 580 570 __________P___ -1 18.6500 127.818 4 3 311
1933197N18129 1933 26 WP MM NOT_NAMED 1933-07-17 06:00:00 NR 18.7530 127.712 main 570 570 __________P___ -1 18.7530 127.712 4 3 336
1933197N18129 1933 26 WP MM NOT_NAMED 1933-07-17 09:00:00 NR 18.9000 127.700 main 571 571 __________O___ -1 18.9000 127.700 4 4 14
1933197N18129 1933 26 WP MM NOT_NAMED 1933-07-17 12:00:00 NR 19.1007 127.810 main 584 584 __________P___ -1 19.1007 127.810 4 6 34
1933197N18129 1933 26 WP MM NOT_NAMED 1933-07-17 15:00:00 NR 19.3570 128.022 main 609 609 __________P___ -1 19.3570 128.022 4 8 40
1933197N18129 1933 26 WP MM NOT_NAMED 1933-07-17 18:00:00 NR 19.6849 128.323 main 647 647 __________P___ -1 19.6849 128.323 4 10 41
1933197N18129 1933 26 WP MM NOT_NAMED 1933-07-17 21:00:00 NR 20.1000 128.700 main 698 698 __________O___ -1 20.1000 128.700 4 12 39
1933197N18129 1933 26 WP MM NOT_NAMED 1933-07-18 00:00:00 NR 20.6267 129.143 main 753 753 __________P___ -1 20.6267 129.143 4 14 38
1933197N18129 1933 26 WP MM NOT_NAMED 1933-07-18 03:00:00 NR 21.2336 129.653 main 834 834 __________P___ -1 21.2336 129.653 4 16 38
1933197N18129 1933 26 WP MM NOT_NAMED 1933-07-18 06:00:00 NR 21.8736 130.187 main 896 896 __________P___ -1 21.8736 130.187 4 16 37
1933197N18129 1933 26 WP MM NOT_NAMED 1933-07-18 09:00:00 NR 22.5000 130.700 main 924 883 __________O___ -1 22.5000 130.700 4 15 37
1933197N18129 1933 26 WP MM NOT_NAMED 1933-07-18 12:00:00 NR 23.0910 131.169 main 883 830 __________P___ -1 23.0910 131.169 4 14 36
1933197N18129 1933 26 WP MM NOT_NAMED 1933-07-18 15:00:00 NR 23.6548 131.604 main 819 779 __________P___ -1 23.6548 131.604 4 13 35
1933197N18129 1933 26 WP MM NOT_NAMED 1933-07-18 18:00:00 NR 24.1662 131.988 main 769 731 __________P___ -1 24.1662 131.988 4 11 34
1933197N18129 1933 26 WP MM NOT_NAMED 1933-07-18 21:00:00 NR 24.6000 132.300 main 731 706 __________O___ -1 24.6000 132.300 4 9 41
1933197N18129 1933 26 WP MM NOT_NAMED 1933-07-19 00:00:00 NR 24.8708 132.659 main 708 693 __________P___ -1 24.8708 132.659 4 7 50
1933197N18129 1933 26 WP MM NOT_NAMED 1933-07-19 03:00:00 NR 25.0750 132.927 main 693 675 __________P___ -1 25.0750 132.927 4 5 39
1933197N18129 1933 26 WP MM NOT_NAMED 1933-07-19 06:00:00 NR 25.2918 133.031 main 675 640 __________P___ -1 25.2918 133.031 4 5 0
1933197N18129 1933 26 WP MM NOT_NAMED 1933-07-19 09:00:00 NR 25.6000 132.900 main 640 571 __________O___ -1 25.6000 132.900 4 10 327
1933197N18129 1933 26 WP MM NOT_NAMED 1933-07-19 12:00:00 NR 26.1554 132.407 main 560 478 __________P___ -1 26.1554 132.407 4 16 318
1933197N18129 1933 26 WP MM NOT_NAMED 1933-07-19 15:00:00 NR 26.7977 131.683 main 478 402 __________P___ -1 26.7977 131.683 4 19 313
1933197N18129 1933 26 WP MM NOT_NAMED 1933-07-19 18:00:00 NR 27.4405 130.867 main 402 339 __________P___ -1 27.4405 130.867 4 19 311
1933197N18129 1933 26 WP MM NOT_NAMED 1933-07-19 21:00:00 NR 28.0000 130.100 main 339 305 __________O___ -1 28.0000 130.100 4 14 312
1933197N18129 1933 26 WP MM NOT_NAMED 1933-07-20 00:00:00 NR 28.3759 129.680 main 305 291 __________P___ -1 28.3759 129.680 4 10 314
1933197N18129 1933 26 WP MM NOT_NAMED 1933-07-20 03:00:00 NR 28.6630 129.326 main 289 281 __________P___ -1 28.6630 129.326 4 8 308
1933197N18129 1933 26 WP MM NOT_NAMED 1933-07-20 06:00:00 NR 28.8939 128.934 main 285 279 __________P___ -1 28.8939 128.934 4 9 298
1933197N18129 1933 26 WP MM NOT_NAMED 1933-07-20 09:00:00 NR 29.1000 128.400 main 291 291 __________O___ -1 29.1000 128.400 4 13 287
1933197N18129 1933 26 WP MM NOT_NAMED 1933-07-20 12:00:00 NR 29.2958 127.474 main 334 334 __________P___ -1 29.2958 127.474 4 18 282
1933197N18129 1933 26 WP MM NOT_NAMED 1933-07-20 15:00:00 NR 29.4723 126.413 main 410 331 __________P___ -1 29.4723 126.413 4 19 281
1933197N18129 1933 26 WP MM NOT_NAMED 1933-07-20 18:00:00 NR 29.6615 125.370 main 333 250 __________P___ -1 29.6615 125.370 4 17 284
1933197N18129 1933 26 WP MM NOT_NAMED 1933-07-20 21:00:00 NR 29.9000 124.500 main 250 204 __________O___ -1 29.9000 124.500 4 13 291
1933197N18129 1933 26 WP MM NOT_NAMED 1933-07-21 00:00:00 NR 30.1206 123.990 main 204 180 __________P___ -1 30.1206 123.990 4 9 306
1933197N18129 1933 26 WP MM NOT_NAMED 1933-07-21 03:00:00 NR 30.4179 123.670 main 180 152 __________P___ -1 30.4179 123.670 4 9 328
1933197N18129 1933 26 WP MM NOT_NAMED 1933-07-21 06:00:00 NR 30.8565 123.465 main 152 134 __________P___ -1 30.8565 123.465 4 11 344
1933197N18129 1933 26 WP MM NOT_NAMED 1933-07-21 09:00:00 NR 31.5000 123.300 main 134 117 __________O___ -1 31.5000 123.300 4 17 346
1933197N18129 1933 26 WP MM NOT_NAMED 1933-07-21 12:00:00 NR 32.4735 122.984 main 134 130 __________P___ -1 32.4735 122.984 4 22 347
1933197N18129 1933 26 WP MM NOT_NAMED 1933-07-21 15:00:00 NR 33.6379 122.696 main 180 180 __________P___ -1 33.6379 122.696 4 24 350
1933197N18129 1933 26 WP MM NOT_NAMED 1933-07-21 18:00:00 NR 34.8582 122.484 main 210 100 __________P___ -1 34.8582 122.484 4 24 354
1933197N18129 1933 26 WP MM NOT_NAMED 1933-07-21 21:00:00 NR 36.0000 122.400 main 89 11 __________O___ -1 36.0000 122.400 4 19 355
1933197N18129 1933 26 WP MM NOT_NAMED 1933-07-22 00:00:00 NR 36.7444 122.283 main 11 0 __________P___ -1 36.7444 122.283 4 14 358
1933197N18129 1933 26 WP MM NOT_NAMED 1933-07-22 03:00:00 NR 37.4130 122.332 main 8 8 __________P___ -1 37.4130 122.332 4 14 12
1933197N18129 1933 26 WP MM NOT_NAMED 1933-07-22 06:00:00 NR 38.1507 122.663 main 94 78 __________P___ -1 38.1507 122.663 4 19 26
1933197N18129 1933 26 WP MM NOT_NAMED 1933-07-22 09:00:00 NR 39.1000 123.400 main 66 0 __________O___ -1 39.1000 123.400 4 29 32
1933197N18129 1933 26 WP MM NOT_NAMED 1933-07-22 12:00:00 NR 40.6087 124.674 main 0 0 __________P___ -1 40.6087 124.674 4 39 36
1933197N18129 1933 26 WP MM NOT_NAMED 1933-07-22 15:00:00 NR 42.2904 126.429 main 0 0 __________P___ -1 42.2904 126.429 4 44 41
1933197N18129 1933 26 WP MM NOT_NAMED 1933-07-22 18:00:00 NR 43.8997 128.531 main 0 0 __________P___ -1 43.8997 128.531 4 43 47
1933197N18129 1933 26 WP MM NOT_NAMED 1933-07-22 21:00:00 NR 45.2000 130.800 main 0 0 __________O___ -1 45.2000 130.800 4 37 57
1933197N18129 1933 26 WP MM NOT_NAMED 1933-07-23 00:00:00 NR 45.9046 132.919 main 0 0 __________P___ -1 45.9046 132.919 4 32 70
1933197N18129 1933 26 WP MM NOT_NAMED 1933-07-23 03:00:00 NR 46.2869 135.083 main 0 0 __________P___ -1 46.2869 135.083 4 30 79
1933197N18129 1933 26 WP MM NOT_NAMED 1933-07-23 06:00:00 NR 46.4755 137.251 main 0 0 __________P___ -1 46.4755 137.251 4 30 84
1933197N18129 1933 26 WP MM NOT_NAMED 1933-07-23 09:00:00 NR 46.6000 139.400 main 75 37 __________O___ -1 46.6000 139.400 4 29 84
1933197N18129 1933 26 WP MM NOT_NAMED 1933-07-23 12:00:00 NR 46.7650 141.527 main 31 0 __________P___ -1 46.7650 141.527 4 29 83
1933197N18129 1933 26 WP MM NOT_NAMED 1933-07-23 15:00:00 NR 46.9711 143.645 main 31 31 __________P___ -1 46.9710 143.645 4 29 82
1933197N18129 1933 26 WP MM NOT_NAMED 1933-07-23 18:00:00 NR 47.1918 145.767 main 175 175 __________P___ -1 47.1918 145.767 4 29 82
1933197N18129 1933 26 WP MM NOT_NAMED 1933-07-23 21:00:00 NR 47.4000 147.900 main 219 __________O___ -1 47.4000 147.900 4 29 82

Digital Typhoon Data and Search

About IBTrACS Database

This database is a web-friendly format of International Best Track Archive for Climate Stewardship (IBTrACS), a global best track data archive curated by NOAA dating back to 1842.

Updated: 2021-10-08